Time;durP1;ratioP1;P1;durP2;ratioP2;P2;SDS_P1;SDS_P2;PMS_P1;PMS_P2;Temp;Humidity;BMP_temperature;BMP_pressure;BME280_temperature;BME280_humidity;BME280_pressure;Samples;Min_cycle;Max_cycle;Signal;HPM_P1;HPM_P2
2022/01/11 00:02:44;;;;;;;31.70;19.60;;;;;;;;;;4995308;28;20033;-75
2022/01/11 00:05:39;;;;;;;36.00;21.25;;;;;;;;;;4993930;28;20043;-65
2022/01/11 00:08:33;;;;;;;32.35;20.60;;;;;;;;;;4987085;28;20044;-66
2022/01/11 00:11:18;;;;;;;32.92;20.92;;;;;;;;;;5008310;28;20093;-67
2022/01/11 00:14:04;;;;;;;33.47;20.63;;;;;;;;;;5012932;28;20032;-69
2022/01/11 00:16:49;;;;;;;30.27;19.02;;;;;;;;;;5012805;28;20025;-68
2022/01/11 00:19:34;;;;;;;29.60;19.65;;;;;;;;;;5012249;28;20157;-68
2022/01/11 00:22:26;;;;;;;31.38;19.63;;;;;;;;;;5013727;28;20042;-71
2022/01/11 00:25:11;;;;;;;30.85;18.85;;;;;;;;;;5005535;28;20182;-66
2022/01/11 00:27:56;;;;;;;29.80;17.70;;;;;;;;;;4999349;28;20069;-68
2022/01/11 00:30:44;;;;;;;30.83;20.27;;;;;;;;;;5012328;28;20479;-69
2022/01/11 00:33:36;;;;;;;38.67;19.20;;;;;;;;;;5008938;28;20029;-66
2022/01/11 00:36:21;;;;;;;29.65;19.05;;;;;;;;;;5006870;28;20373;-68
2022/01/11 00:39:06;;;;;;;30.00;18.15;;;;;;;;;;5009953;28;20040;-76
2022/01/11 00:41:51;;;;;;;29.80;18.35;;;;;;;;;;4998462;28;20083;-67
2022/01/11 00:44:37;;;;;;;33.65;19.67;;;;;;;;;;5006943;28;20083;-68
2022/01/11 00:47:22;;;;;;;31.48;19.15;;;;;;;;;;5004065;28;20388;-67
2022/01/11 00:50:09;;;;;;;33.03;22.35;;;;;;;;;;5013084;28;20573;-66
2022/01/11 00:52:54;;;;;;;29.48;19.17;;;;;;;;;;5012851;28;20040;-70
2022/01/11 00:55:39;;;;;;;32.60;20.17;;;;;;;;;;5013675;28;20036;-68
2022/01/11 00:58:24;;;;;;;33.25;20.70;;;;;;;;;;5003335;28;20532;-67
2022/01/11 01:01:10;;;;;;;26.20;16.13;;;;;;;;;;5006950;28;20029;-74
2022/01/11 01:03:55;;;;;;;35.58;19.83;;;;;;;;;;4993434;28;20100;-75
2022/01/11 01:06:41;;;;;;;34.10;18.80;;;;;;;;;;5012446;28;20037;-75
2022/01/11 01:09:34;;;;;;;35.65;20.40;;;;;;;;;;5013803;28;20040;-75
2022/01/11 01:12:20;;;;;;;35.47;20.13;;;;;;;;;;5011505;28;20037;-74
2022/01/11 01:15:05;;;;;;;26.65;17.88;;;;;;;;;;5007686;28;20025;-76
2022/01/11 01:17:51;;;;;;;32.17;20.70;;;;;;;;;;4997752;28;20040;-76
2022/01/11 01:20:36;;;;;;;29.42;18.75;;;;;;;;;;5010578;28;20370;-74
2022/01/11 01:23:22;;;;;;;27.90;18.40;;;;;;;;;;5012920;28;20032;-76
2022/01/11 01:26:07;;;;;;;22.92;14.55;;;;;;;;;;5012691;28;20046;-76
2022/01/11 01:28:53;;;;;;;24.45;15.70;;;;;;;;;;5010509;28;20574;-78
2022/01/11 01:31:39;;;;;;;31.88;17.63;;;;;;;;;;5007543;28;20041;-74
2022/01/11 01:34:24;;;;;;;27.33;16.98;;;;;;;;;;4986923;28;20109;-71
2022/01/11 01:37:10;;;;;;;27.73;17.80;;;;;;;;;;5008242;28;20369;-75
2022/01/11 01:39:55;;;;;;;27.67;17.75;;;;;;;;;;5011227;28;20427;-70
2022/01/11 01:42:40;;;;;;;35.78;19.15;;;;;;;;;;5002899;28;20040;-70
2022/01/11 01:45:25;;;;;;;30.10;18.13;;;;;;;;;;4997294;28;20049;-68
2022/01/11 01:48:12;;;;;;;30.27;18.23;;;;;;;;;;5006446;28;20034;-67
2022/01/11 01:50:58;;;;;;;28.80;17.63;;;;;;;;;;5010792;28;20049;-69
2022/01/11 01:53:45;;;;;;;31.13;17.00;;;;;;;;;;5016727;28;20166;-67
2022/01/11 01:56:30;;;;;;;31.98;18.00;;;;;;;;;;5016023;28;20108;-73
2022/01/11 01:59:15;;;;;;;26.63;18.10;;;;;;;;;;4996688;28;20029;-74
2022/01/11 02:02:01;;;;;;;32.00;18.42;;;;;;;;;;5016415;28;20096;-73
2022/01/11 02:04:48;;;;;;;25.55;15.88;;;;;;;;;;5016048;28;20079;-74
2022/01/11 02:07:33;;;;;;;28.02;17.33;;;;;;;;;;5000409;28;20087;-74
2022/01/11 02:10:19;;;;;;;28.80;18.15;;;;;;;;;;5013034;28;20088;-73
2022/01/11 02:13:05;;;;;;;32.95;20.25;;;;;;;;;;5016262;28;20045;-66
2022/01/11 02:15:51;;;;;;;29.88;16.25;;;;;;;;;;5009951;28;20193;-72
2022/01/11 02:18:36;;;;;;;33.13;19.10;;;;;;;;;;4999754;28;20547;-69
2022/01/11 02:21:22;;;;;;;31.05;18.42;;;;;;;;;;5013285;28;20111;-72
2022/01/11 02:24:07;;;;;;;29.48;17.25;;;;;;;;;;5016662;28;20029;-68
2022/01/11 02:26:52;;;;;;;27.98;17.52;;;;;;;;;;5013122;28;20044;-67
2022/01/11 02:29:37;;;;;;;29.83;17.55;;;;;;;;;;5015993;28;20037;-65
2022/01/11 02:32:23;;;;;;;31.63;17.77;;;;;;;;;;5014613;28;20037;-69
2022/01/11 02:35:08;;;;;;;29.48;18.58;;;;;;;;;;5007451;28;20091;-67
2022/01/11 02:37:53;;;;;;;34.97;17.45;;;;;;;;;;5012223;28;20033;-67
2022/01/11 02:40:38;;;;;;;33.63;16.15;;;;;;;;;;4988100;28;20080;-68
2022/01/11 02:43:24;;;;;;;28.58;17.15;;;;;;;;;;5024709;28;20025;-68
2022/01/11 02:46:10;;;;;;;27.20;15.70;;;;;;;;;;5016126;28;20048;-68
2022/01/11 02:48:55;;;;;;;29.13;17.77;;;;;;;;;;5014454;28;20095;-67
2022/01/11 02:51:41;;;;;;;29.52;16.67;;;;;;;;;;5016205;28;20041;-77
2022/01/11 02:54:26;;;;;;;30.08;20.15;;;;;;;;;;5014019;28;20033;-75
2022/01/11 02:57:12;;;;;;;34.15;19.52;;;;;;;;;;5000794;28;20227;-76
2022/01/11 02:59:57;;;;;;;30.13;18.10;;;;;;;;;;5014777;28;20493;-76
2022/01/11 03:02:42;;;;;;;31.10;18.23;;;;;;;;;;5004015;28;20057;-76
2022/01/11 03:05:28;;;;;;;33.83;19.08;;;;;;;;;;5015648;28;20033;-75
2022/01/11 03:08:14;;;;;;;36.47;19.67;;;;;;;;;;4999365;28;20409;-66
2022/01/11 03:11:00;;;;;;;30.88;16.85;;;;;;;;;;5010686;28;20021;-73
2022/01/11 03:13:45;;;;;;;29.40;15.88;;;;;;;;;;5014144;28;20524;-76
2022/01/11 03:16:31;;;;;;;26.10;15.73;;;;;;;;;;5015517;28;20025;-74
2022/01/11 03:19:16;;;;;;;33.40;18.58;;;;;;;;;;5011141;28;20033;-75
2022/01/11 03:22:01;;;;;;;29.05;16.08;;;;;;;;;;5015331;28;20094;-75
2022/01/11 03:24:46;;;;;;;28.02;17.63;;;;;;;;;;5008835;28;20042;-68
2022/01/11 03:27:32;;;;;;;30.67;18.83;;;;;;;;;;5000154;28;20036;-76
2022/01/11 03:30:17;;;;;;;26.10;16.65;;;;;;;;;;4994876;28;20040;-74
2022/01/11 03:33:03;;;;;;;26.60;16.13;;;;;;;;;;5014111;28;20032;-73
2022/01/11 03:35:49;;;;;;;33.40;19.30;;;;;;;;;;4996690;28;21633;-74
2022/01/11 03:38:34;;;;;;;25.80;17.38;;;;;;;;;;5013904;28;20051;-75
2022/01/11 03:41:19;;;;;;;26.63;17.88;;;;;;;;;;5027140;28;20037;-75
2022/01/11 03:44:06;;;;;;;34.30;18.85;;;;;;;;;;5004381;28;20034;-68
2022/01/11 03:46:51;;;;;;;30.27;17.60;;;;;;;;;;5005666;28;20041;-67
2022/01/11 03:49:36;;;;;;;29.30;17.73;;;;;;;;;;5013020;28;20033;-68
2022/01/11 03:52:22;;;;;;;29.67;17.63;;;;;;;;;;5014293;28;20041;-68
2022/01/11 03:55:12;;;;;;;31.17;18.27;;;;;;;;;;5013427;28;20060;-69
2022/01/11 03:57:58;;;;;;;30.33;18.65;;;;;;;;;;5010792;28;20060;-67
2022/01/11 04:00:43;;;;;;;26.75;15.88;;;;;;;;;;5012876;28;20029;-68
2022/01/11 04:03:29;;;;;;;31.67;18.67;;;;;;;;;;5028306;28;20357;-72
2022/01/11 04:06:16;;;;;;;27.17;16.35;;;;;;;;;;5027201;28;20044;-73
2022/01/11 04:09:03;;;;;;;30.90;18.50;;;;;;;;;;5013440;28;20033;-74
2022/01/11 04:11:48;;;;;;;33.63;19.27;;;;;;;;;;5005274;28;20022;-72
2022/01/11 04:14:33;;;;;;;28.55;17.92;;;;;;;;;;5012007;28;20045;-73
2022/01/11 04:17:19;;;;;;;25.75;16.80;;;;;;;;;;5011335;28;20033;-72
2022/01/11 04:20:05;;;;;;;27.00;18.08;;;;;;;;;;4993884;28;20063;-65
2022/01/11 04:22:50;;;;;;;30.55;16.05;;;;;;;;;;5008070;28;20033;-69
2022/01/11 04:25:35;;;;;;;30.90;18.73;;;;;;;;;;5009631;28;20088;-66
2022/01/11 04:28:23;;;;;;;35.47;19.02;;;;;;;;;;5012528;28;20033;-67
2022/01/11 04:31:08;;;;;;;31.45;17.98;;;;;;;;;;4984797;28;20079;-65
2022/01/11 04:33:53;;;;;;;37.10;19.65;;;;;;;;;;5013495;28;20633;-67
2022/01/11 04:36:38;;;;;;;32.72;17.70;;;;;;;;;;5013475;28;20034;-66
2022/01/11 04:39:24;;;;;;;37.75;18.67;;;;;;;;;;5027745;28;20025;-73
2022/01/11 04:42:09;;;;;;;37.95;20.48;;;;;;;;;;5030089;28;20034;-73
2022/01/11 04:44:54;;;;;;;35.22;19.30;;;;;;;;;;5013057;28;20055;-73
2022/01/11 04:47:40;;;;;;;33.10;19.33;;;;;;;;;;5011047;28;20477;-73
2022/01/11 04:50:28;;;;;;;31.15;19.20;;;;;;;;;;5000187;28;20037;-73
2022/01/11 04:53:14;;;;;;;25.70;15.50;;;;;;;;;;5012280;28;20045;-74
2022/01/11 04:55:59;;;;;;;32.40;19.38;;;;;;;;;;4996299;28;20037;-74
2022/01/11 04:58:44;;;;;;;43.60;21.35;;;;;;;;;;5013305;28;20039;-74
2022/01/11 05:01:30;;;;;;;33.88;19.63;;;;;;;;;;5003609;28;20037;-74
2022/01/11 05:04:15;;;;;;;35.50;18.02;;;;;;;;;;5009995;28;20543;-73
2022/01/11 05:07:00;;;;;;;38.22;20.48;;;;;;;;;;5000514;28;20113;-73
2022/01/11 05:09:46;;;;;;;30.77;18.85;;;;;;;;;;5003109;28;20073;-73
2022/01/11 05:12:32;;;;;;;33.72;19.60;;;;;;;;;;5000121;28;21551;-74
2022/01/11 05:15:17;;;;;;;35.85;20.50;;;;;;;;;;5026980;28;20441;-67
2022/01/11 05:18:02;;;;;;;42.13;22.90;;;;;;;;;;4999444;28;20034;-74
2022/01/11 05:20:47;;;;;;;37.33;20.15;;;;;;;;;;5012535;28;20068;-69
2022/01/11 05:23:34;;;;;;;35.72;20.33;;;;;;;;;;5012710;28;20148;-70
2022/01/11 05:26:19;;;;;;;37.65;20.20;;;;;;;;;;5008456;28;20141;-69
2022/01/11 05:29:04;;;;;;;36.58;19.70;;;;;;;;;;5022038;28;20150;-64
2022/01/11 05:31:49;;;;;;;37.28;19.77;;;;;;;;;;5014458;28;20464;-67
2022/01/11 05:34:35;;;;;;;35.33;18.58;;;;;;;;;;5018357;28;20037;-69
2022/01/11 05:37:20;;;;;;;35.90;19.40;;;;;;;;;;5015258;28;20599;-65
2022/01/11 05:40:07;;;;;;;35.30;20.55;;;;;;;;;;5013146;28;20033;-66
2022/01/11 05:42:52;;;;;;;37.45;20.92;;;;;;;;;;5016825;28;20029;-65
2022/01/11 05:45:38;;;;;;;31.05;17.40;;;;;;;;;;5016348;28;20496;-67
2022/01/11 05:48:23;;;;;;;36.75;20.80;;;;;;;;;;5008361;28;20049;-67
2022/01/11 05:51:08;;;;;;;34.45;19.27;;;;;;;;;;5010644;28;20037;-66
2022/01/11 05:53:54;;;;;;;29.80;17.70;;;;;;;;;;5009481;28;20037;-66
2022/01/11 05:56:39;;;;;;;37.58;20.80;;;;;;;;;;4994717;28;20422;-67
2022/01/11 05:59:24;;;;;;;32.75;19.80;;;;;;;;;;5006256;28;20025;-66
2022/01/11 06:02:10;;;;;;;33.60;19.65;;;;;;;;;;5008006;28;20369;-66
2022/01/11 06:04:55;;;;;;;37.72;20.15;;;;;;;;;;5008379;28;20060;-66
2022/01/11 06:07:40;;;;;;;36.45;18.60;;;;;;;;;;5008028;28;20492;-66
2022/01/11 06:10:25;;;;;;;35.45;20.48;;;;;;;;;;5002137;28;20041;-65
2022/01/11 06:13:11;;;;;;;43.97;21.67;;;;;;;;;;5007490;28;20103;-66
2022/01/11 06:15:56;;;;;;;36.67;20.85;;;;;;;;;;5010030;28;20029;-69
2022/01/11 06:18:42;;;;;;;39.88;20.38;;;;;;;;;;5008713;28;20041;-72
2022/01/11 06:21:27;;;;;;;38.33;21.70;;;;;;;;;;5022509;28;20436;-70
2022/01/11 06:24:13;;;;;;;33.33;20.90;;;;;;;;;;5008567;28;20586;-72
2022/01/11 06:26:58;;;;;;;32.25;19.15;;;;;;;;;;4989994;28;20034;-69
2022/01/11 06:29:43;;;;;;;44.10;21.25;;;;;;;;;;5008689;28;20068;-69
2022/01/11 06:32:28;;;;;;;38.90;20.88;;;;;;;;;;5009092;28;20065;-67
2022/01/11 06:35:15;;;;;;;34.10;19.05;;;;;;;;;;5010666;28;20068;-66
2022/01/11 06:38:00;;;;;;;34.72;20.60;;;;;;;;;;5020242;28;20032;-69
2022/01/11 06:40:46;;;;;;;31.75;18.63;;;;;;;;;;5008846;28;20488;-67
2022/01/11 06:43:31;;;;;;;37.03;20.70;;;;;;;;;;5008249;28;20792;-69
2022/01/11 06:46:17;;;;;;;35.83;18.38;;;;;;;;;;5008673;28;20418;-68
2022/01/11 06:49:04;;;;;;;38.13;21.40;;;;;;;;;;5008653;28;20095;-72
2022/01/11 06:51:49;;;;;;;39.00;19.63;;;;;;;;;;5008318;28;20123;-66
2022/01/11 06:54:34;;;;;;;40.47;21.92;;;;;;;;;;4994765;28;20365;-67
2022/01/11 06:57:19;;;;;;;35.08;20.23;;;;;;;;;;5008400;28;20026;-68
2022/01/11 07:00:07;;;;;;;39.67;21.95;;;;;;;;;;5009824;28;20039;-68
2022/01/11 07:02:52;;;;;;;36.83;21.33;;;;;;;;;;5007445;28;20460;-70
2022/01/11 07:05:37;;;;;;;36.72;21.17;;;;;;;;;;5008630;28;20396;-69
2022/01/11 07:08:24;;;;;;;36.00;21.48;;;;;;;;;;5009800;28;20043;-68
2022/01/11 07:11:11;;;;;;;41.28;22.65;;;;;;;;;;4993483;28;20032;-69
2022/01/11 07:13:56;;;;;;;32.63;21.27;;;;;;;;;;5008975;28;20036;-68
2022/01/11 07:16:43;;;;;;;34.03;19.58;;;;;;;;;;5004569;28;20041;-68
2022/01/11 07:19:29;;;;;;;42.70;21.08;;;;;;;;;;5010316;28;20025;-67
2022/01/11 07:22:15;;;;;;;33.90;20.80;;;;;;;;;;4997193;28;20041;-67
2022/01/11 07:25:00;;;;;;;41.67;21.98;;;;;;;;;;5013149;28;20168;-74
2022/01/11 07:27:45;;;;;;;37.72;21.52;;;;;;;;;;5012112;28;20055;-68
2022/01/11 07:30:31;;;;;;;38.65;22.63;;;;;;;;;;5013249;28;20036;-68
2022/01/11 07:33:16;;;;;;;36.20;19.90;;;;;;;;;;4992108;28;20041;-68
2022/01/11 07:36:01;;;;;;;37.47;22.55;;;;;;;;;;4999852;28;20116;-68
2022/01/11 07:38:47;;;;;;;40.65;20.58;;;;;;;;;;5005160;28;20654;-72
2022/01/11 07:41:32;;;;;;;39.47;22.80;;;;;;;;;;4990709;28;20060;-67
2022/01/11 07:44:17;;;;;;;39.53;21.45;;;;;;;;;;5012635;28;20041;-67
2022/01/11 07:47:04;;;;;;;45.45;24.98;;;;;;;;;;5000791;28;20061;-68
2022/01/11 07:49:49;;;;;;;34.08;18.75;;;;;;;;;;5011140;28;20120;-68
2022/01/11 07:52:34;;;;;;;41.88;22.85;;;;;;;;;;5014166;28;20115;-69
2022/01/11 07:55:20;;;;;;;40.92;21.48;;;;;;;;;;5008409;28;20067;-66
2022/01/11 07:58:05;;;;;;;35.65;22.95;;;;;;;;;;5010912;28;20110;-70
2022/01/11 08:00:50;;;;;;;45.88;26.02;;;;;;;;;;5006993;28;20061;-70
2022/01/11 08:03:36;;;;;;;31.00;18.40;;;;;;;;;;5012571;28;20049;-69
2022/01/11 08:06:21;;;;;;;38.08;22.13;;;;;;;;;;5005741;28;20500;-73
2022/01/11 08:09:07;;;;;;;32.17;21.23;;;;;;;;;;5011174;28;20044;-71
2022/01/11 08:11:56;;;;;;;31.40;20.73;;;;;;;;;;4999388;28;20083;-71
2022/01/11 08:14:41;;;;;;;39.28;23.92;;;;;;;;;;4997906;28;20048;-74
2022/01/11 08:17:28;;;;;;;44.78;22.75;;;;;;;;;;4998882;28;20037;-73
2022/01/11 08:20:14;;;;;;;44.80;22.33;;;;;;;;;;5009701;28;20028;-68
2022/01/11 08:22:59;;;;;;;38.47;22.13;;;;;;;;;;5009528;28;20029;-67
2022/01/11 08:25:44;;;;;;;34.25;21.85;;;;;;;;;;5010024;28;20486;-68
2022/01/11 08:28:30;;;;;;;37.60;23.13;;;;;;;;;;5011440;28;20488;-68
2022/01/11 08:31:15;;;;;;;41.30;24.23;;;;;;;;;;5006454;28;20064;-69
2022/01/11 08:34:01;;;;;;;33.47;21.77;;;;;;;;;;5023289;28;20041;-66
2022/01/11 08:36:50;;;;;;;35.00;22.33;;;;;;;;;;5013346;28;20382;-67
2022/01/11 08:39:36;;;;;;;42.20;23.65;;;;;;;;;;5010353;28;20026;-69
2022/01/11 08:42:22;;;;;;;38.65;25.38;;;;;;;;;;4999298;28;20506;-67
2022/01/11 08:45:08;;;;;;;35.28;22.65;;;;;;;;;;5024655;28;20037;-67
2022/01/11 08:47:53;;;;;;;35.72;22.55;;;;;;;;;;4988975;28;20033;-67
2022/01/11 08:50:38;;;;;;;38.67;23.45;;;;;;;;;;5011606;28;20033;-65
2022/01/11 08:53:23;;;;;;;32.47;20.58;;;;;;;;;;5012977;28;20041;-66
2022/01/11 08:56:09;;;;;;;36.97;22.20;;;;;;;;;;5009998;28;20039;-67
2022/01/11 08:58:54;;;;;;;35.83;23.30;;;;;;;;;;4996400;28;20037;-66
2022/01/11 09:01:39;;;;;;;37.22;22.17;;;;;;;;;;5014872;28;20029;-66
2022/01/11 09:04:26;;;;;;;37.60;22.25;;;;;;;;;;4998126;28;20044;-70
2022/01/11 09:07:11;;;;;;;40.78;23.02;;;;;;;;;;5011617;28;20132;-68
2022/01/11 09:09:57;;;;;;;36.65;22.27;;;;;;;;;;5014581;28;20025;-70
2022/01/11 09:12:43;;;;;;;36.30;21.98;;;;;;;;;;5014314;28;20091;-69
2022/01/11 09:15:28;;;;;;;32.47;22.55;;;;;;;;;;5029523;28;20021;-66
2022/01/11 09:18:15;;;;;;;34.95;22.20;;;;;;;;;;5016247;28;20042;-67
2022/01/11 09:21:03;;;;;;;34.88;22.20;;;;;;;;;;5011467;28;20065;-67
2022/01/11 09:23:49;;;;;;;34.13;21.42;;;;;;;;;;5026096;28;20032;-68
2022/01/11 09:26:34;;;;;;;40.22;22.70;;;;;;;;;;5001038;28;20049;-71
2022/01/11 09:29:20;;;;;;;33.30;20.20;;;;;;;;;;5011599;28;20045;-69
2022/01/11 09:32:06;;;;;;;29.00;18.60;;;;;;;;;;5015659;28;20393;-71
2022/01/11 09:34:51;;;;;;;33.30;20.27;;;;;;;;;;5000992;28;20029;-69
2022/01/11 09:37:37;;;;;;;31.73;19.48;;;;;;;;;;5014150;28;20045;-67
2022/01/11 09:40:22;;;;;;;36.58;18.63;;;;;;;;;;5015324;28;20029;-67
2022/01/11 09:43:07;;;;;;;30.73;19.52;;;;;;;;;;5016213;28;20033;-66
2022/01/11 09:45:53;;;;;;;33.05;20.65;;;;;;;;;;5011309;28;20096;-66
2022/01/11 09:48:44;;;;;;;31.90;19.13;;;;;;;;;;5009146;28;20118;-64
2022/01/11 09:51:34;;;;;;;30.58;19.73;;;;;;;;;;5005019;28;20025;-69
2022/01/11 09:54:19;;;;;;;;;;;;;;;;;;5009198;28;20144;-68
2022/01/11 09:57:05;;;;;;;36.72;19.10;;;;;;;;;;5012825;28;20205;-68
2022/01/11 09:59:50;;;;;;;30.58;18.55;;;;;;;;;;5001054;28;20465;-68
2022/01/11 10:02:36;;;;;;;31.73;20.17;;;;;;;;;;5013939;28;20111;-68
2022/01/11 10:05:21;;;;;;;31.17;19.02;;;;;;;;;;5014445;28;20296;-68
2022/01/11 10:08:27;;;;;;;34.35;19.38;;;;;;;;;;5008157;28;20509;-70
2022/01/11 10:11:12;;;;;;;32.22;19.60;;;;;;;;;;5006967;28;20042;-71
2022/01/11 10:13:57;;;;;;;27.55;18.73;;;;;;;;;;5013547;28;20129;-67
2022/01/11 10:16:43;;;;;;;33.50;19.25;;;;;;;;;;5012882;28;20041;-66
2022/01/11 10:19:28;;;;;;;33.42;18.20;;;;;;;;;;5013463;28;20055;-66
2022/01/11 10:22:17;;;;;;;33.47;19.38;;;;;;;;;;5012931;28;20112;-63
2022/01/11 10:25:03;;;;;;;43.03;19.60;;;;;;;;;;5029074;28;20065;-66
2022/01/11 10:27:54;;;;;;;36.47;18.92;;;;;;;;;;5011057;28;20112;-65
2022/01/11 10:30:39;;;;;;;30.65;18.58;;;;;;;;;;5008734;28;20037;-69
2022/01/11 10:33:25;;;;;;;32.28;18.00;;;;;;;;;;5004653;28;20106;-69
2022/01/11 10:36:13;;;;;;;30.80;19.25;;;;;;;;;;5013145;28;20069;-67
2022/01/11 10:39:18;;;;;;;27.10;17.20;;;;;;;;;;5028246;28;20392;-68
2022/01/11 10:42:03;;;;;;;29.95;18.90;;;;;;;;;;5014205;28;20040;-67
2022/01/11 10:44:54;;;;;;;30.42;17.08;;;;;;;;;;5013880;28;20214;-64
2022/01/11 10:47:40;;;;;;;26.17;17.15;;;;;;;;;;4999287;28;20037;-68
2022/01/11 10:50:28;;;;;;;27.02;16.88;;;;;;;;;;5014541;28;20606;-62
2022/01/11 10:53:17;;;;;;;26.15;17.48;;;;;;;;;;5014679;28;20048;-63
2022/01/11 10:56:02;;;;;;;24.00;16.50;;;;;;;;;;5006665;28;20036;-64
2022/01/11 10:59:08;;;;;;;21.90;14.80;;;;;;;;;;5010592;28;20378;-64
2022/01/11 11:01:53;;;;;;;27.40;16.67;;;;;;;;;;5009283;28;20041;-64
2022/01/11 11:04:39;;;;;;;27.75;15.77;;;;;;;;;;5012951;28;20033;-65
2022/01/11 11:07:26;;;;;;;23.60;15.10;;;;;;;;;;5011147;28;20523;-70
2022/01/11 11:10:12;;;;;;;24.15;15.23;;;;;;;;;;5012879;28;20034;-69
2022/01/11 11:12:58;;;;;;;26.02;14.25;;;;;;;;;;5008893;28;20042;-70
2022/01/11 11:15:43;;;;;;;20.95;14.63;;;;;;;;;;5007953;28;20587;-67
2022/01/11 11:18:32;;;;;;;23.45;13.63;;;;;;;;;;5007508;28;20064;-70
2022/01/11 11:21:21;;;;;;;24.88;14.50;;;;;;;;;;5003412;28;20040;-69
2022/01/11 11:24:07;;;;;;;22.27;12.40;;;;;;;;;;5020025;28;20384;-70
2022/01/11 11:26:53;;;;;;;19.90;13.57;;;;;;;;;;5008930;28;20040;-65
2022/01/11 11:29:38;;;;;;;21.92;13.65;;;;;;;;;;5010027;28;20120;-65
2022/01/11 11:32:24;;;;;;;25.90;13.98;;;;;;;;;;5009854;28;20037;-65
2022/01/11 11:35:11;;;;;;;20.30;13.43;;;;;;;;;;5007380;28;20452;-64
2022/01/11 11:38:04;;;;;;;22.48;13.73;;;;;;;;;;5012058;28;20038;-63
2022/01/11 11:40:52;;;;;;;21.55;12.65;;;;;;;;;;5015044;28;20039;-63
2022/01/11 11:43:38;;;;;;;22.83;12.43;;;;;;;;;;5026952;28;20498;-68
2022/01/11 11:46:42;;;;;;;20.50;12.00;;;;;;;;;;5011363;28;20091;-65
2022/01/11 11:49:39;;;;;;;17.83;11.68;;;;;;;;;;5011619;28;20487;-67
2022/01/11 11:52:34;;;;;;;19.83;12.43;;;;;;;;;;5009909;28;20033;-64
2022/01/11 11:55:28;;;;;;;17.67;10.68;;;;;;;;;;5013093;28;20045;-65
2022/01/11 11:58:18;;;;;;;20.70;12.25;;;;;;;;;;4995523;28;20559;-64
2022/01/11 12:01:03;;;;;;;22.45;12.98;;;;;;;;;;4990295;28;20055;-69
2022/01/11 12:03:48;;;;;;;57.97;14.82;;;;;;;;;;5005464;28;20129;-66
2022/01/11 12:06:34;;;;;;;23.52;12.48;;;;;;;;;;5018379;28;20087;-67
2022/01/11 12:09:21;;;;;;;29.88;13.32;;;;;;;;;;5005541;28;20116;-65
2022/01/11 12:12:09;;;;;;;34.50;15.23;;;;;;;;;;5006237;28;20103;-68
2022/01/11 12:14:54;;;;;;;31.65;10.38;;;;;;;;;;5003008;28;20076;-70
2022/01/11 12:17:40;;;;;;;26.70;9.50;;;;;;;;;;5006523;28;20041;-68
2022/01/11 12:20:45;;;;;;;17.27;9.95;;;;;;;;;;4995948;28;20029;-71
2022/01/11 12:23:33;;;;;;;15.48;8.00;;;;;;;;;;5010162;28;20041;-67
2022/01/11 12:26:20;;;;;;;13.63;7.47;;;;;;;;;;5006574;28;20049;-66
2022/01/11 12:29:08;;;;;;;12.25;5.97;;;;;;;;;;5006487;28;20036;-67
2022/01/11 12:31:59;;;;;;;11.90;5.70;;;;;;;;;;5005113;28;20040;-66
2022/01/11 12:34:48;;;;;;;9.68;4.70;;;;;;;;;;5010686;28;20041;-68
2022/01/11 12:37:43;;;;;;;7.65;4.40;;;;;;;;;;4995205;28;20061;-63
2022/01/11 12:40:36;;;;;;;11.55;4.07;;;;;;;;;;5005912;28;20111;-64
2022/01/11 12:43:36;;;;;;;9.52;4.20;;;;;;;;;;5004735;28;20468;-68
2022/01/11 12:46:21;;;;;;;7.75;4.55;;;;;;;;;;5005588;28;20121;-67
2022/01/11 12:49:06;;;;;;;7.72;4.70;;;;;;;;;;5005514;28;20368;-71
2022/01/11 12:51:54;;;;;;;9.25;5.28;;;;;;;;;;5002226;28;20128;-66
2022/01/11 12:54:40;;;;;;;7.82;4.47;;;;;;;;;;5005920;28;20091;-66
2022/01/11 12:57:26;;;;;;;14.43;6.00;;;;;;;;;;4990183;28;20129;-67
2022/01/11 13:00:13;;;;;;;11.15;5.07;;;;;;;;;;5005417;28;20229;-68
2022/01/11 13:03:03;;;;;;;11.05;4.10;;;;;;;;;;5003807;28;20103;-61
2022/01/11 13:05:53;;;;;;;6.32;3.88;;;;;;;;;;5004701;28;20037;-65
2022/01/11 13:08:42;;;;;;;6.20;3.80;;;;;;;;;;5004394;28;20034;-63
2022/01/11 13:11:27;;;;;;;7.25;3.85;;;;;;;;;;5005463;28;20124;-65
2022/01/11 13:14:18;;;;;;;8.98;3.63;;;;;;;;;;5020260;28;20461;-66
2022/01/11 13:17:03;;;;;;;5.00;2.97;;;;;;;;;;5005911;28;20045;-64
2022/01/11 13:19:49;;;;;;;7.45;4.32;;;;;;;;;;5006122;28;20180;-67
2022/01/11 13:22:35;;;;;;;7.68;3.03;;;;;;;;;;5006303;28;20030;-73
2022/01/11 13:25:38;;;;;;;7.57;3.40;;;;;;;;;;5001559;28;20408;-73
2022/01/11 13:28:34;;;;;;;6.50;3.60;;;;;;;;;;5020098;28;20431;-73
2022/01/11 13:31:21;;;;;;;6.68;3.50;;;;;;;;;;5005877;28;20375;-74
2022/01/11 13:34:08;;;;;;;8.68;3.95;;;;;;;;;;5006215;28;20214;-73
2022/01/11 13:36:54;;;;;;;8.85;3.97;;;;;;;;;;5006147;28;20420;-67
2022/01/11 13:39:41;;;;;;;8.35;4.60;;;;;;;;;;5002363;28;20037;-65
2022/01/11 13:42:28;;;;;;;7.97;4.65;;;;;;;;;;5005239;28;20587;-69
2022/01/11 13:45:13;;;;;;;7.88;4.13;;;;;;;;;;5003681;28;20132;-68
2022/01/11 13:48:07;;;;;;;7.38;4.25;;;;;;;;;;5008332;28;20034;-68
2022/01/11 13:50:52;;;;;;;8.75;5.15;;;;;;;;;;5006339;28;20037;-68
2022/01/11 13:53:38;;;;;;;11.18;4.35;;;;;;;;;;5009814;28;20539;-68
2022/01/11 13:56:23;;;;;;;9.18;4.97;;;;;;;;;;4992092;28;20306;-57
2022/01/11 13:59:10;;;;;;;9.10;5.05;;;;;;;;;;5007697;28;20569;-57
2022/01/11 14:02:05;;;;;;;8.25;4.28;;;;;;;;;;5020648;28;20038;-68
2022/01/11 14:04:51;;;;;;;8.35;4.38;;;;;;;;;;5008738;28;20033;-66
2022/01/11 14:07:37;;;;;;;9.65;4.75;;;;;;;;;;5007934;28;20076;-67
2022/01/11 14:10:25;;;;;;;8.15;4.35;;;;;;;;;;5009948;28;20040;-68
2022/01/11 14:13:16;;;;;;;6.97;3.95;;;;;;;;;;5007592;28;20124;-67
2022/01/11 14:16:09;;;;;;;8.75;4.25;;;;;;;;;;5006616;28;20473;-65
2022/01/11 14:19:02;;;;;;;6.10;3.55;;;;;;;;;;5028783;28;20029;-68
2022/01/11 14:21:51;;;;;;;8.65;3.80;;;;;;;;;;5012321;28;20041;-66
2022/01/11 14:24:55;;;;;;;10.57;4.68;;;;;;;;;;5008268;28;20432;-67
2022/01/11 14:27:41;;;;;;;8.45;3.97;;;;;;;;;;5024597;28;20026;-67
2022/01/11 14:30:41;;;;;;;7.45;4.20;;;;;;;;;;5026176;28;20487;-66
2022/01/11 14:33:35;;;;;;;6.22;4.03;;;;;;;;;;4990817;28;20049;-67
2022/01/11 14:36:23;;;;;;;8.05;4.80;;;;;;;;;;4997858;28;20396;-68
2022/01/11 14:39:13;;;;;;;10.02;4.32;;;;;;;;;;5012313;28;20033;-65
2022/01/11 14:41:58;;;;;;;;;;;;;;;;;;5014543;28;20577;-68
2022/01/11 14:44:43;;;;;;;9.73;4.78;;;;;;;;;;5000689;28;20018;-67
2022/01/11 14:47:46;;;;;;;7.82;4.72;;;;;;;;;;5013275;28;20116;-68
2022/01/11 14:50:31;;;;;;;9.45;5.03;;;;;;;;;;5009039;28;20030;-68
2022/01/11 14:53:17;;;;;;;8.23;4.90;;;;;;;;;;5013200;28;20067;-69
2022/01/11 14:56:03;;;;;;;10.23;4.95;;;;;;;;;;5006601;28;20029;-67
2022/01/11 14:58:50;;;;;;;7.93;4.70;;;;;;;;;;5012561;28;20033;-69
2022/01/11 15:01:55;;;;;;;12.25;5.32;;;;;;;;;;5014324;28;20036;-69
2022/01/11 15:04:42;;;;;;;10.32;5.28;;;;;;;;;;5004883;28;20038;-70
2022/01/11 15:07:28;;;;;;;9.80;4.97;;;;;;;;;;5010768;28;20029;-66
2022/01/11 15:10:20;;;;;;;7.72;4.65;;;;;;;;;;5009265;28;20041;-64
2022/01/11 15:13:16;;;;;;;8.30;5.05;;;;;;;;;;4993496;28;20487;-67
2022/01/11 15:16:02;;;;;;;8.88;5.15;;;;;;;;;;5013109;28;20043;-65
2022/01/11 15:18:48;;;;;;;8.07;5.15;;;;;;;;;;5027388;28;20028;-65
2022/01/11 15:21:34;;;;;;;11.98;5.18;;;;;;;;;;5004122;28;20113;-67
2022/01/11 15:24:20;;;;;;;10.60;5.00;;;;;;;;;;5027720;28;20033;-69
2022/01/11 15:27:06;;;;;;;9.35;5.70;;;;;;;;;;5009894;28;20030;-69
2022/01/11 15:29:52;;;;;;;7.28;4.60;;;;;;;;;;5007100;28;20075;-70
2022/01/11 15:32:38;;;;;;;8.48;5.28;;;;;;;;;;4999685;28;20029;-68
2022/01/11 15:35:24;;;;;;;11.25;5.68;;;;;;;;;;5004571;28;20863;-71
2022/01/11 15:38:09;;;;;;;9.20;4.72;;;;;;;;;;5011709;28;20036;-69
2022/01/11 15:40:59;;;;;;;11.50;5.47;;;;;;;;;;5010451;28;20108;-64
2022/01/11 15:43:44;;;;;;;;;;;;;;;;;;5012240;28;20163;-70
2022/01/11 15:46:31;;;;;;;7.20;4.93;;;;;;;;;;5006960;28;20034;-66
2022/01/11 15:49:17;;;;;;;11.48;4.38;;;;;;;;;;4994292;28;20052;-66
2022/01/11 15:52:02;;;;;;;8.07;4.20;;;;;;;;;;5009604;28;20077;-67
2022/01/11 15:54:47;;;;;;;9.85;4.97;;;;;;;;;;5012056;28;20036;-66
2022/01/11 15:57:33;;;;;;;8.25;4.78;;;;;;;;;;4998275;28;20033;-67
2022/01/11 16:00:18;;;;;;;9.50;5.15;;;;;;;;;;5007728;28;20036;-67
2022/01/11 16:03:04;;;;;;;8.43;5.03;;;;;;;;;;5011378;28;20878;-66
2022/01/11 16:05:49;;;;;;;8.25;4.85;;;;;;;;;;5005693;28;20500;-69
2022/01/11 16:08:34;;;;;;;8.00;4.80;;;;;;;;;;5011265;28;20131;-69
2022/01/11 16:11:20;;;;;;;7.97;4.85;;;;;;;;;;5013242;28;20047;-67
2022/01/11 16:14:05;;;;;;;7.88;3.90;;;;;;;;;;4988272;28;20045;-68
2022/01/11 16:16:51;;;;;;;8.40;4.55;;;;;;;;;;5009207;28;20475;-67
2022/01/11 16:19:36;;;;;;;8.88;5.10;;;;;;;;;;5007342;28;20073;-68